sensor_id;sensor_type;location;lat;lon;timestamp;temperature;humidity
47338;DHT22;33069;51.970;5.892;2023-04-24T00:00:09;9.90;85.70
47338;DHT22;33069;51.970;5.892;2023-04-24T00:02:35;9.80;85.90
47338;DHT22;33069;51.970;5.892;2023-04-24T00:05:05;9.90;86.30
47338;DHT22;33069;51.970;5.892;2023-04-24T00:07:31;9.80;86.30
47338;DHT22;33069;51.970;5.892;2023-04-24T00:09:57;9.90;86.50
47338;DHT22;33069;51.970;5.892;2023-04-24T00:12:23;10.00;86.30
47338;DHT22;33069;51.970;5.892;2023-04-24T00:15:19;9.90;86.30
47338;DHT22;33069;51.970;5.892;2023-04-24T00:17:45;9.80;86.50
47338;DHT22;33069;51.970;5.892;2023-04-24T00:20:11;9.90;86.40
47338;DHT22;33069;51.970;5.892;2023-04-24T00:22:37;9.90;86.10
47338;DHT22;33069;51.970;5.892;2023-04-24T00:25:03;9.80;86.10
47338;DHT22;33069;51.970;5.892;2023-04-24T00:27:28;9.80;86.10
47338;DHT22;33069;51.970;5.892;2023-04-24T00:29:54;9.90;86.20
47338;DHT22;33069;51.970;5.892;2023-04-24T00:32:20;9.80;86.20
47338;DHT22;33069;51.970;5.892;2023-04-24T00:34:45;9.70;86.30
47338;DHT22;33069;51.970;5.892;2023-04-24T00:37:11;9.70;86.40
47338;DHT22;33069;51.970;5.892;2023-04-24T00:39:37;9.60;86.70
47338;DHT22;33069;51.970;5.892;2023-04-24T00:42:02;9.70;86.90
47338;DHT22;33069;51.970;5.892;2023-04-24T00:44:28;9.70;86.90
47338;DHT22;33069;51.970;5.892;2023-04-24T00:46:55;9.70;86.40
47338;DHT22;33069;51.970;5.892;2023-04-24T00:49:23;9.70;86.40
47338;DHT22;33069;51.970;5.892;2023-04-24T00:51:49;9.70;86.80
47338;DHT22;33069;51.970;5.892;2023-04-24T00:54:17;9.60;87.30
47338;DHT22;33069;51.970;5.892;2023-04-24T00:56:43;9.60;87.60
47338;DHT22;33069;51.970;5.892;2023-04-24T00:59:11;9.50;87.80
47338;DHT22;33069;51.970;5.892;2023-04-24T01:01:37;9.50;88.10
47338;DHT22;33069;51.970;5.892;2023-04-24T01:04:07;9.50;88.30
47338;DHT22;33069;51.970;5.892;2023-04-24T01:06:38;9.60;88.60
47338;DHT22;33069;51.970;5.892;2023-04-24T01:09:04;9.60;88.40
47338;DHT22;33069;51.970;5.892;2023-04-24T01:11:30;9.50;88.50
47338;DHT22;33069;51.970;5.892;2023-04-24T01:13:56;9.50;88.50
47338;DHT22;33069;51.970;5.892;2023-04-24T01:16:22;9.70;88.60
47338;DHT22;33069;51.970;5.892;2023-04-24T01:18:48;9.50;88.40
47338;DHT22;33069;51.970;5.892;2023-04-24T01:21:15;9.70;88.40
47338;DHT22;33069;51.970;5.892;2023-04-24T01:23:45;9.70;87.80
47338;DHT22;33069;51.970;5.892;2023-04-24T01:26:11;9.80;87.60
47338;DHT22;33069;51.970;5.892;2023-04-24T01:28:37;9.70;87.30
47338;DHT22;33069;51.970;5.892;2023-04-24T01:31:03;9.70;87.00
47338;DHT22;33069;51.970;5.892;2023-04-24T01:33:29;9.80;86.60
47338;DHT22;33069;51.970;5.892;2023-04-24T01:35:55;9.80;86.90
47338;DHT22;33069;51.970;5.892;2023-04-24T01:38:20;9.70;87.10
47338;DHT22;33069;51.970;5.892;2023-04-24T01:40:47;9.70;87.30
47338;DHT22;33069;51.970;5.892;2023-04-24T01:43:13;9.70;87.40
47338;DHT22;33069;51.970;5.892;2023-04-24T01:45:39;9.90;87.40
47338;DHT22;33069;51.970;5.892;2023-04-24T01:48:04;9.80;87.00
47338;DHT22;33069;51.970;5.892;2023-04-24T01:50:30;9.90;87.00
47338;DHT22;33069;51.970;5.892;2023-04-24T01:52:56;9.70;87.10
47338;DHT22;33069;51.970;5.892;2023-04-24T01:55:22;9.80;87.30
47338;DHT22;33069;51.970;5.892;2023-04-24T01:57:47;9.50;87.80
47338;DHT22;33069;51.970;5.892;2023-04-24T02:00:14;9.60;88.60
47338;DHT22;33069;51.970;5.892;2023-04-24T02:02:58;9.70;89.00
47338;DHT22;33069;51.970;5.892;2023-04-24T02:05:24;9.60;89.20
47338;DHT22;33069;51.970;5.892;2023-04-24T02:07:50;9.70;89.50
47338;DHT22;33069;51.970;5.892;2023-04-24T02:10:15;9.70;89.60
47338;DHT22;33069;51.970;5.892;2023-04-24T02:12:41;9.50;89.40
47338;DHT22;33069;51.970;5.892;2023-04-24T02:15:07;9.40;89.50
47338;DHT22;33069;51.970;5.892;2023-04-24T02:17:33;9.60;89.60
47338;DHT22;33069;51.970;5.892;2023-04-24T02:19:58;9.50;89.60
47338;DHT22;33069;51.970;5.892;2023-04-24T02:22:24;9.40;89.50
47338;DHT22;33069;51.970;5.892;2023-04-24T02:24:50;9.60;89.50
47338;DHT22;33069;51.970;5.892;2023-04-24T02:27:15;9.60;89.40
47338;DHT22;33069;51.970;5.892;2023-04-24T02:29:41;9.60;89.40
47338;DHT22;33069;51.970;5.892;2023-04-24T02:32:07;9.70;89.50
47338;DHT22;33069;51.970;5.892;2023-04-24T02:34:36;9.50;89.40
47338;DHT22;33069;51.970;5.892;2023-04-24T02:37:02;9.50;89.30
47338;DHT22;33069;51.970;5.892;2023-04-24T02:39:28;9.60;89.50
47338;DHT22;33069;51.970;5.892;2023-04-24T02:41:53;9.50;89.40
47338;DHT22;33069;51.970;5.892;2023-04-24T02:44:19;9.50;89.50
47338;DHT22;33069;51.970;5.892;2023-04-24T02:46:45;9.40;89.50
47338;DHT22;33069;51.970;5.892;2023-04-24T02:49:10;9.70;89.70
47338;DHT22;33069;51.970;5.892;2023-04-24T02:51:46;9.50;89.60
47338;DHT22;33069;51.970;5.892;2023-04-24T02:54:12;9.50;89.60
47338;DHT22;33069;51.970;5.892;2023-04-24T02:56:37;9.50;89.60
47338;DHT22;33069;51.970;5.892;2023-04-24T02:59:03;9.50;89.60
47338;DHT22;33069;51.970;5.892;2023-04-24T03:01:29;9.60;89.70
47338;DHT22;33069;51.970;5.892;2023-04-24T03:03:55;9.50;89.70
47338;DHT22;33069;51.970;5.892;2023-04-24T03:06:20;9.50;89.70
47338;DHT22;33069;51.970;5.892;2023-04-24T03:08:47;9.40;89.70
47338;DHT22;33069;51.970;5.892;2023-04-24T03:11:12;9.40;89.80
47338;DHT22;33069;51.970;5.892;2023-04-24T03:13:38;9.50;89.90
47338;DHT22;33069;51.970;5.892;2023-04-24T03:16:04;9.60;89.90
47338;DHT22;33069;51.970;5.892;2023-04-24T03:18:30;9.50;89.80
47338;DHT22;33069;51.970;5.892;2023-04-24T03:20:55;9.60;89.90
47338;DHT22;33069;51.970;5.892;2023-04-24T03:23:21;9.60;89.80
47338;DHT22;33069;51.970;5.892;2023-04-24T03:25:47;9.60;89.80
47338;DHT22;33069;51.970;5.892;2023-04-24T03:28:13;9.60;89.80
47338;DHT22;33069;51.970;5.892;2023-04-24T03:30:39;9.50;89.70
47338;DHT22;33069;51.970;5.892;2023-04-24T03:33:05;9.50;89.70
47338;DHT22;33069;51.970;5.892;2023-04-24T03:35:31;9.40;89.70
47338;DHT22;33069;51.970;5.892;2023-04-24T03:37:56;9.50;89.80
47338;DHT22;33069;51.970;5.892;2023-04-24T03:40:22;9.40;89.70
47338;DHT22;33069;51.970;5.892;2023-04-24T03:42:48;9.60;89.90
47338;DHT22;33069;51.970;5.892;2023-04-24T03:45:13;9.50;89.70
47338;DHT22;33069;51.970;5.892;2023-04-24T03:47:39;9.50;89.70
47338;DHT22;33069;51.970;5.892;2023-04-24T03:50:05;9.30;89.60
47338;DHT22;33069;51.970;5.892;2023-04-24T03:52:31;9.30;89.60
47338;DHT22;33069;51.970;5.892;2023-04-24T03:54:56;9.30;89.80
47338;DHT22;33069;51.970;5.892;2023-04-24T03:57:22;9.40;89.80
47338;DHT22;33069;51.970;5.892;2023-04-24T03:59:48;9.50;89.70
47338;DHT22;33069;51.970;5.892;2023-04-24T04:02:13;9.50;89.30
47338;DHT22;33069;51.970;5.892;2023-04-24T04:04:39;9.30;89.20
47338;DHT22;33069;51.970;5.892;2023-04-24T04:07:05;9.30;89.30
47338;DHT22;33069;51.970;5.892;2023-04-24T04:09:30;9.20;89.20
47338;DHT22;33069;51.970;5.892;2023-04-24T04:11:56;9.30;89.30
47338;DHT22;33069;51.970;5.892;2023-04-24T04:14:22;9.20;89.30
47338;DHT22;33069;51.970;5.892;2023-04-24T04:16:48;9.20;89.30
47338;DHT22;33069;51.970;5.892;2023-04-24T04:19:14;9.10;89.20
47338;DHT22;33069;51.970;5.892;2023-04-24T04:21:40;9.20;89.20
47338;DHT22;33069;51.970;5.892;2023-04-24T04:24:06;9.10;89.20
47338;DHT22;33069;51.970;5.892;2023-04-24T04:26:32;9.20;89.30
47338;DHT22;33069;51.970;5.892;2023-04-24T04:28:59;9.10;89.00
47338;DHT22;33069;51.970;5.892;2023-04-24T04:31:26;9.10;89.00
47338;DHT22;33069;51.970;5.892;2023-04-24T04:33:51;9.10;89.10
47338;DHT22;33069;51.970;5.892;2023-04-24T04:36:17;9.10;89.10
47338;DHT22;33069;51.970;5.892;2023-04-24T04:38:43;9.00;89.10
47338;DHT22;33069;51.970;5.892;2023-04-24T04:41:10;9.10;89.20
47338;DHT22;33069;51.970;5.892;2023-04-24T04:43:36;9.00;89.20
47338;DHT22;33069;51.970;5.892;2023-04-24T04:46:03;9.10;89.20
47338;DHT22;33069;51.970;5.892;2023-04-24T04:48:29;9.00;89.00
47338;DHT22;33069;51.970;5.892;2023-04-24T04:50:57;9.10;89.00
47338;DHT22;33069;51.970;5.892;2023-04-24T04:53:23;9.10;89.00
47338;DHT22;33069;51.970;5.892;2023-04-24T04:55:49;9.10;89.00
47338;DHT22;33069;51.970;5.892;2023-04-24T04:58:15;8.90;89.00
47338;DHT22;33069;51.970;5.892;2023-04-24T05:00:40;9.10;89.20
47338;DHT22;33069;51.970;5.892;2023-04-24T05:03:07;9.10;89.20
47338;DHT22;33069;51.970;5.892;2023-04-24T05:05:32;9.10;89.30
47338;DHT22;33069;51.970;5.892;2023-04-24T05:07:58;9.00;89.10
47338;DHT22;33069;51.970;5.892;2023-04-24T05:10:24;9.00;89.20
47338;DHT22;33069;51.970;5.892;2023-04-24T05:12:49;8.90;89.30
47338;DHT22;33069;51.970;5.892;2023-04-24T05:15:15;9.10;89.50
47338;DHT22;33069;51.970;5.892;2023-04-24T05:17:41;9.00;89.40
47338;DHT22;33069;51.970;5.892;2023-04-24T05:20:07;9.10;89.60
47338;DHT22;33069;51.970;5.892;2023-04-24T05:22:33;9.00;89.60
47338;DHT22;33069;51.970;5.892;2023-04-24T05:24:58;9.10;89.70
47338;DHT22;33069;51.970;5.892;2023-04-24T05:27:24;9.10;89.60
47338;DHT22;33069;51.970;5.892;2023-04-24T05:29:50;9.00;89.50
47338;DHT22;33069;51.970;5.892;2023-04-24T05:32:16;9.00;89.50
47338;DHT22;33069;51.970;5.892;2023-04-24T05:34:42;8.80;89.50
47338;DHT22;33069;51.970;5.892;2023-04-24T05:37:07;9.20;89.80
47338;DHT22;33069;51.970;5.892;2023-04-24T05:39:35;9.10;89.60
47338;DHT22;33069;51.970;5.892;2023-04-24T05:42:01;9.10;89.50
47338;DHT22;33069;51.970;5.892;2023-04-24T05:44:27;9.10;89.50
47338;DHT22;33069;51.970;5.892;2023-04-24T05:46:53;9.10;89.50
47338;DHT22;33069;51.970;5.892;2023-04-24T05:49:20;9.20;89.60
47338;DHT22;33069;51.970;5.892;2023-04-24T05:51:46;9.20;89.50
47338;DHT22;33069;51.970;5.892;2023-04-24T05:54:12;9.20;89.50
47338;DHT22;33069;51.970;5.892;2023-04-24T05:56:38;9.40;89.50
47338;DHT22;33069;51.970;5.892;2023-04-24T05:59:03;9.30;89.30
47338;DHT22;33069;51.970;5.892;2023-04-24T06:01:29;9.40;89.20
47338;DHT22;33069;51.970;5.892;2023-04-24T06:03:56;9.40;89.10
47338;DHT22;33069;51.970;5.892;2023-04-24T06:06:23;9.40;89.00
47338;DHT22;33069;51.970;5.892;2023-04-24T06:08:49;9.40;89.00
47338;DHT22;33069;51.970;5.892;2023-04-24T06:11:15;9.30;89.00
47338;DHT22;33069;51.970;5.892;2023-04-24T06:13:41;9.20;89.20
47338;DHT22;33069;51.970;5.892;2023-04-24T06:16:07;9.10;89.30
47338;DHT22;33069;51.970;5.892;2023-04-24T06:18:32;9.20;89.50
47338;DHT22;33069;51.970;5.892;2023-04-24T06:20:58;9.40;89.70
47338;DHT22;33069;51.970;5.892;2023-04-24T06:23:24;9.30;89.60
47338;DHT22;33069;51.970;5.892;2023-04-24T06:25:49;9.50;89.60
47338;DHT22;33069;51.970;5.892;2023-04-24T06:28:15;9.70;89.60
47338;DHT22;33069;51.970;5.892;2023-04-24T06:30:41;9.60;89.20
47338;DHT22;33069;51.970;5.892;2023-04-24T06:33:07;9.50;89.20
47338;DHT22;33069;51.970;5.892;2023-04-24T06:35:32;9.60;89.30
47338;DHT22;33069;51.970;5.892;2023-04-24T06:37:58;9.50;89.20
47338;DHT22;33069;51.970;5.892;2023-04-24T06:40:24;9.40;89.10
47338;DHT22;33069;51.970;5.892;2023-04-24T06:42:49;9.50;88.90
47338;DHT22;33069;51.970;5.892;2023-04-24T06:45:15;9.40;88.60
47338;DHT22;33069;51.970;5.892;2023-04-24T06:47:41;9.30;88.00
47338;DHT22;33069;51.970;5.892;2023-04-24T06:50:07;9.20;88.30
47338;DHT22;33069;51.970;5.892;2023-04-24T06:52:33;9.30;88.70
47338;DHT22;33069;51.970;5.892;2023-04-24T06:55:02;9.50;88.90
47338;DHT22;33069;51.970;5.892;2023-04-24T06:57:29;9.50;88.90
47338;DHT22;33069;51.970;5.892;2023-04-24T06:59:55;9.60;88.90
47338;DHT22;33069;51.970;5.892;2023-04-24T07:02:21;9.40;88.80
47338;DHT22;33069;51.970;5.892;2023-04-24T07:04:46;9.40;88.90
47338;DHT22;33069;51.970;5.892;2023-04-24T07:07:13;9.50;89.20
47338;DHT22;33069;51.970;5.892;2023-04-24T07:09:42;9.20;89.00
47338;DHT22;33069;51.970;5.892;2023-04-24T07:12:08;9.30;89.30
47338;DHT22;33069;51.970;5.892;2023-04-24T07:14:39;9.20;89.40
47338;DHT22;33069;51.970;5.892;2023-04-24T07:17:05;9.10;89.60
47338;DHT22;33069;51.970;5.892;2023-04-24T07:19:33;9.00;89.80
47338;DHT22;33069;51.970;5.892;2023-04-24T07:21:59;8.90;89.90
47338;DHT22;33069;51.970;5.892;2023-04-24T07:24:25;9.00;90.20
47338;DHT22;33069;51.970;5.892;2023-04-24T07:26:52;9.00;90.30
47338;DHT22;33069;51.970;5.892;2023-04-24T07:29:18;9.00;90.50
47338;DHT22;33069;51.970;5.892;2023-04-24T07:31:45;8.90;90.50
47338;DHT22;33069;51.970;5.892;2023-04-24T07:34:11;8.80;90.50
47338;DHT22;33069;51.970;5.892;2023-04-24T07:36:36;8.70;90.40
47338;DHT22;33069;51.970;5.892;2023-04-24T07:39:04;8.80;90.50
47338;DHT22;33069;51.970;5.892;2023-04-24T07:41:30;8.70;90.50
47338;DHT22;33069;51.970;5.892;2023-04-24T07:43:56;8.70;90.50
47338;DHT22;33069;51.970;5.892;2023-04-24T07:46:21;8.70;90.60
47338;DHT22;33069;51.970;5.892;2023-04-24T07:48:48;8.70;90.50
47338;DHT22;33069;51.970;5.892;2023-04-24T07:51:15;8.70;90.60
47338;DHT22;33069;51.970;5.892;2023-04-24T07:53:41;8.60;90.40
47338;DHT22;33069;51.970;5.892;2023-04-24T07:56:07;8.70;90.30
47338;DHT22;33069;51.970;5.892;2023-04-24T07:58:33;8.60;90.10
47338;DHT22;33069;51.970;5.892;2023-04-24T08:00:59;8.60;90.20
47338;DHT22;33069;51.970;5.892;2023-04-24T08:03:25;8.60;90.20
47338;DHT22;33069;51.970;5.892;2023-04-24T08:05:51;8.40;90.20
47338;DHT22;33069;51.970;5.892;2023-04-24T08:08:17;8.40;90.10
47338;DHT22;33069;51.970;5.892;2023-04-24T08:10:43;8.40;90.10
47338;DHT22;33069;51.970;5.892;2023-04-24T08:13:09;8.30;90.10
47338;DHT22;33069;51.970;5.892;2023-04-24T08:15:36;8.30;90.10
47338;DHT22;33069;51.970;5.892;2023-04-24T08:18:02;8.20;90.00
47338;DHT22;33069;51.970;5.892;2023-04-24T08:20:28;8.20;90.00
47338;DHT22;33069;51.970;5.892;2023-04-24T08:22:54;8.20;90.00
47338;DHT22;33069;51.970;5.892;2023-04-24T08:25:20;8.20;89.90
47338;DHT22;33069;51.970;5.892;2023-04-24T08:27:48;8.20;89.80
47338;DHT22;33069;51.970;5.892;2023-04-24T08:30:14;8.20;89.70
47338;DHT22;33069;51.970;5.892;2023-04-24T08:32:40;8.10;89.60
47338;DHT22;33069;51.970;5.892;2023-04-24T08:35:06;8.20;89.50
47338;DHT22;33069;51.970;5.892;2023-04-24T08:37:34;8.20;89.70
47338;DHT22;33069;51.970;5.892;2023-04-24T08:40:01;8.30;89.90
47338;DHT22;33069;51.970;5.892;2023-04-24T08:42:32;8.20;89.90
47338;DHT22;33069;51.970;5.892;2023-04-24T08:44:59;8.20;89.90
47338;DHT22;33069;51.970;5.892;2023-04-24T08:47:25;8.30;90.00
47338;DHT22;33069;51.970;5.892;2023-04-24T08:49:52;8.20;90.00
47338;DHT22;33069;51.970;5.892;2023-04-24T08:52:20;8.30;90.20
47338;DHT22;33069;51.970;5.892;2023-04-24T08:54:47;8.10;90.10
47338;DHT22;33069;51.970;5.892;2023-04-24T08:57:14;8.20;90.30
47338;DHT22;33069;51.970;5.892;2023-04-24T08:59:40;8.20;90.20
47338;DHT22;33069;51.970;5.892;2023-04-24T09:02:10;8.30;90.40
47338;DHT22;33069;51.970;5.892;2023-04-24T09:04:36;8.30;90.50
47338;DHT22;33069;51.970;5.892;2023-04-24T09:07:03;8.30;90.60
47338;DHT22;33069;51.970;5.892;2023-04-24T09:09:33;8.10;90.50
47338;DHT22;33069;51.970;5.892;2023-04-24T09:12:00;7.90;90.30
47338;DHT22;33069;51.970;5.892;2023-04-24T09:14:26;7.80;90.00
47338;DHT22;33069;51.970;5.892;2023-04-24T09:16:53;7.80;89.60
47338;DHT22;33069;51.970;5.892;2023-04-24T09:19:19;8.00;89.90
47338;DHT22;33069;51.970;5.892;2023-04-24T09:21:47;8.00;89.80
47338;DHT22;33069;51.970;5.892;2023-04-24T09:24:20;8.20;89.90
47338;DHT22;33069;51.970;5.892;2023-04-24T09:26:48;8.20;89.80
47338;DHT22;33069;51.970;5.892;2023-04-24T09:29:16;8.10;88.70
47338;DHT22;33069;51.970;5.892;2023-04-24T09:31:42;8.30;88.70
47338;DHT22;33069;51.970;5.892;2023-04-24T09:34:09;8.20;88.40
47338;DHT22;33069;51.970;5.892;2023-04-24T09:36:42;8.30;88.10
47338;DHT22;33069;51.970;5.892;2023-04-24T09:39:13;8.40;87.90
47338;DHT22;33069;51.970;5.892;2023-04-24T09:41:52;8.40;87.30
47338;DHT22;33069;51.970;5.892;2023-04-24T09:44:22;8.50;86.00
47338;DHT22;33069;51.970;5.892;2023-04-24T09:46:53;8.50;85.60
47338;DHT22;33069;51.970;5.892;2023-04-24T09:49:27;8.50;85.10
47338;DHT22;33069;51.970;5.892;2023-04-24T09:52:04;8.60;84.50
47338;DHT22;33069;51.970;5.892;2023-04-24T09:54:30;8.70;84.40
47338;DHT22;33069;51.970;5.892;2023-04-24T09:56:56;8.80;84.40
47338;DHT22;33069;51.970;5.892;2023-04-24T09:59:22;8.80;83.40
47338;DHT22;33069;51.970;5.892;2023-04-24T10:01:48;8.90;82.70
47338;DHT22;33069;51.970;5.892;2023-04-24T10:04:16;8.90;83.90
47338;DHT22;33069;51.970;5.892;2023-04-24T10:06:43;9.00;83.40
47338;DHT22;33069;51.970;5.892;2023-04-24T10:09:09;9.10;82.70
47338;DHT22;33069;51.970;5.892;2023-04-24T10:11:37;8.90;82.00
47338;DHT22;33069;51.970;5.892;2023-04-24T10:14:03;9.20;80.20
47338;DHT22;33069;51.970;5.892;2023-04-24T10:16:29;9.20;79.60
47338;DHT22;33069;51.970;5.892;2023-04-24T10:18:59;9.20;80.70
47338;DHT22;33069;51.970;5.892;2023-04-24T10:21:26;9.30;80.90
47338;DHT22;33069;51.970;5.892;2023-04-24T10:23:52;9.10;79.90
47338;DHT22;33069;51.970;5.892;2023-04-24T10:26:19;9.60;80.10
47338;DHT22;33069;51.970;5.892;2023-04-24T10:28:47;9.50;80.20
47338;DHT22;33069;51.970;5.892;2023-04-24T10:31:14;9.70;79.70
47338;DHT22;33069;51.970;5.892;2023-04-24T10:33:41;9.50;79.60
47338;DHT22;33069;51.970;5.892;2023-04-24T10:36:09;9.90;80.00
47338;DHT22;33069;51.970;5.892;2023-04-24T10:38:37;9.90;77.70
47338;DHT22;33069;51.970;5.892;2023-04-24T10:41:11;10.00;75.60
47338;DHT22;33069;51.970;5.892;2023-04-24T10:43:42;9.90;75.10
47338;DHT22;33069;51.970;5.892;2023-04-24T10:46:08;10.20;74.00
47338;DHT22;33069;51.970;5.892;2023-04-24T10:48:36;10.00;73.70
47338;DHT22;33069;51.970;5.892;2023-04-24T10:51:11;10.30;73.60
47338;DHT22;33069;51.970;5.892;2023-04-24T10:53:38;10.00;74.90
47338;DHT22;33069;51.970;5.892;2023-04-24T10:58:44;9.90;71.20
47338;DHT22;33069;51.970;5.892;2023-04-24T11:01:27;9.80;71.80
47338;DHT22;33069;51.970;5.892;2023-04-24T11:04:00;9.80;73.10
47338;DHT22;33069;51.970;5.892;2023-04-24T11:06:36;9.90;72.00
47338;DHT22;33069;51.970;5.892;2023-04-24T11:09:07;9.70;74.20
47338;DHT22;33069;51.970;5.892;2023-04-24T11:11:34;9.60;72.50
47338;DHT22;33069;51.970;5.892;2023-04-24T11:14:02;9.50;72.80
47338;DHT22;33069;51.970;5.892;2023-04-24T11:16:39;9.20;75.60
47338;DHT22;33069;51.970;5.892;2023-04-24T11:21:41;9.60;74.40
47338;DHT22;33069;51.970;5.892;2023-04-24T11:24:27;9.60;74.30
47338;DHT22;33069;51.970;5.892;2023-04-24T11:27:41;9.70;74.50
47338;DHT22;33069;51.970;5.892;2023-04-24T11:30:08;9.70;72.30
47338;DHT22;33069;51.970;5.892;2023-04-24T11:40:04;9.70;71.70
47338;DHT22;33069;51.970;5.892;2023-04-24T11:42:41;9.70;72.00
47338;DHT22;33069;51.970;5.892;2023-04-24T11:45:08;10.00;73.40
47338;DHT22;33069;51.970;5.892;2023-04-24T11:47:35;10.00;70.70
47338;DHT22;33069;51.970;5.892;2023-04-24T11:50:03;10.00;71.70
47338;DHT22;33069;51.970;5.892;2023-04-24T11:52:30;10.00;72.60
47338;DHT22;33069;51.970;5.892;2023-04-24T11:54:56;10.00;70.90
47338;DHT22;33069;51.970;5.892;2023-04-24T11:57:24;9.70;71.20
47338;DHT22;33069;51.970;5.892;2023-04-24T11:59:53;9.70;72.20
47338;DHT22;33069;51.970;5.892;2023-04-24T12:02:25;9.80;71.70
47338;DHT22;33069;51.970;5.892;2023-04-24T12:04:54;9.70;71.50
47338;DHT22;33069;51.970;5.892;2023-04-24T12:07:21;9.60;72.60
47338;DHT22;33069;51.970;5.892;2023-04-24T12:09:55;9.50;74.70
47338;DHT22;33069;51.970;5.892;2023-04-24T12:12:25;9.20;75.90
47338;DHT22;33069;51.970;5.892;2023-04-24T12:14:58;9.10;77.40
47338;DHT22;33069;51.970;5.892;2023-04-24T12:17:34;9.10;80.40
47338;DHT22;33069;51.970;5.892;2023-04-24T12:20:02;8.90;79.70
47338;DHT22;33069;51.970;5.892;2023-04-24T12:22:42;8.80;80.40
47338;DHT22;33069;51.970;5.892;2023-04-24T12:25:10;8.80;80.70
47338;DHT22;33069;51.970;5.892;2023-04-24T12:27:36;9.10;79.70
47338;DHT22;33069;51.970;5.892;2023-04-24T12:30:04;9.10;79.80
47338;DHT22;33069;51.970;5.892;2023-04-24T12:32:30;9.40;78.30
47338;DHT22;33069;51.970;5.892;2023-04-24T12:34:56;9.70;74.50
47338;DHT22;33069;51.970;5.892;2023-04-24T12:37:26;9.70;75.00
47338;DHT22;33069;51.970;5.892;2023-04-24T12:40:11;9.90;74.80
47338;DHT22;33069;51.970;5.892;2023-04-24T12:42:46;10.10;73.00
47338;DHT22;33069;51.970;5.892;2023-04-24T12:45:12;10.00;71.40
47338;DHT22;33069;51.970;5.892;2023-04-24T12:47:39;9.70;72.10
47338;DHT22;33069;51.970;5.892;2023-04-24T12:50:06;9.90;72.10
47338;DHT22;33069;51.970;5.892;2023-04-24T12:52:32;9.80;71.80
47338;DHT22;33069;51.970;5.892;2023-04-24T12:55:00;9.80;73.10
47338;DHT22;33069;51.970;5.892;2023-04-24T12:57:28;10.10;70.70
47338;DHT22;33069;51.970;5.892;2023-04-24T12:59:58;10.00;72.20
47338;DHT22;33069;51.970;5.892;2023-04-24T13:02:33;10.20;71.20
47338;DHT22;33069;51.970;5.892;2023-04-24T13:04:59;10.30;70.70
47338;DHT22;33069;51.970;5.892;2023-04-24T13:07:26;10.00;72.30
47338;DHT22;33069;51.970;5.892;2023-04-24T13:09:53;10.10;71.50
47338;DHT22;33069;51.970;5.892;2023-04-24T13:12:19;10.10;72.80
47338;DHT22;33069;51.970;5.892;2023-04-24T13:14:45;10.00;72.40
47338;DHT22;33069;51.970;5.892;2023-04-24T13:17:12;10.10;70.10
47338;DHT22;33069;51.970;5.892;2023-04-24T13:19:42;10.10;70.30
47338;DHT22;33069;51.970;5.892;2023-04-24T13:22:12;10.30;69.80
47338;DHT22;33069;51.970;5.892;2023-04-24T13:24:38;10.10;71.10
47338;DHT22;33069;51.970;5.892;2023-04-24T13:27:08;10.10;71.40
47338;DHT22;33069;51.970;5.892;2023-04-24T13:29:34;10.00;71.80
47338;DHT22;33069;51.970;5.892;2023-04-24T13:32:00;10.10;69.60
47338;DHT22;33069;51.970;5.892;2023-04-24T13:34:27;9.80;69.30
47338;DHT22;33069;51.970;5.892;2023-04-24T13:36:54;10.00;70.10
47338;DHT22;33069;51.970;5.892;2023-04-24T13:39:21;10.10;69.00
47338;DHT22;33069;51.970;5.892;2023-04-24T13:41:47;10.10;69.10
47338;DHT22;33069;51.970;5.892;2023-04-24T13:44:16;10.20;69.10
47338;DHT22;33069;51.970;5.892;2023-04-24T13:46:43;10.20;67.60
47338;DHT22;33069;51.970;5.892;2023-04-24T13:49:11;10.20;68.50
47338;DHT22;33069;51.970;5.892;2023-04-24T13:51:37;10.40;68.60
47338;DHT22;33069;51.970;5.892;2023-04-24T13:54:03;10.40;67.70
47338;DHT22;33069;51.970;5.892;2023-04-24T13:56:29;10.50;68.00
47338;DHT22;33069;51.970;5.892;2023-04-24T13:58:55;10.30;68.50
47338;DHT22;33069;51.970;5.892;2023-04-24T14:01:21;10.30;68.80
47338;DHT22;33069;51.970;5.892;2023-04-24T14:03:50;10.50;69.50
47338;DHT22;33069;51.970;5.892;2023-04-24T14:06:17;10.50;68.50
47338;DHT22;33069;51.970;5.892;2023-04-24T14:08:43;10.70;65.20
47338;DHT22;33069;51.970;5.892;2023-04-24T14:11:09;10.60;62.40
47338;DHT22;33069;51.970;5.892;2023-04-24T14:13:36;10.40;64.60
47338;DHT22;33069;51.970;5.892;2023-04-24T14:16:03;10.50;60.90
47338;DHT22;33069;51.970;5.892;2023-04-24T14:18:29;10.40;61.80
47338;DHT22;33069;51.970;5.892;2023-04-24T14:20:55;10.10;62.30
47338;DHT22;33069;51.970;5.892;2023-04-24T14:23:21;10.40;62.20
47338;DHT22;33069;51.970;5.892;2023-04-24T14:25:47;10.30;64.00
47338;DHT22;33069;51.970;5.892;2023-04-24T14:28:20;10.60;62.90
47338;DHT22;33069;51.970;5.892;2023-04-24T14:30:46;10.70;65.10
47338;DHT22;33069;51.970;5.892;2023-04-24T14:33:12;11.00;66.30
47338;DHT22;33069;51.970;5.892;2023-04-24T14:35:39;11.70;64.00
47338;DHT22;33069;51.970;5.892;2023-04-24T14:38:05;12.20;59.10
47338;DHT22;33069;51.970;5.892;2023-04-24T14:40:31;12.20;56.80
47338;DHT22;33069;51.970;5.892;2023-04-24T14:42:58;12.30;56.10
47338;DHT22;33069;51.970;5.892;2023-04-24T14:45:24;11.80;54.80
47338;DHT22;33069;51.970;5.892;2023-04-24T14:47:50;11.00;57.90
47338;DHT22;33069;51.970;5.892;2023-04-24T14:50:16;11.00;60.50
47338;DHT22;33069;51.970;5.892;2023-04-24T14:52:42;11.20;59.40
47338;DHT22;33069;51.970;5.892;2023-04-24T14:55:08;11.40;57.90
47338;DHT22;33069;51.970;5.892;2023-04-24T14:57:34;11.30;59.00
47338;DHT22;33069;51.970;5.892;2023-04-24T15:00:07;11.00;61.80
47338;DHT22;33069;51.970;5.892;2023-04-24T15:02:35;11.20;59.80
47338;DHT22;33069;51.970;5.892;2023-04-24T15:05:03;10.70;60.20
47338;DHT22;33069;51.970;5.892;2023-04-24T15:07:29;10.60;61.00
47338;DHT22;33069;51.970;5.892;2023-04-24T15:09:56;10.80;59.00
47338;DHT22;33069;51.970;5.892;2023-04-24T15:12:22;10.70;59.40
47338;DHT22;33069;51.970;5.892;2023-04-24T15:14:47;10.80;58.40
47338;DHT22;33069;51.970;5.892;2023-04-24T15:17:13;10.60;59.30
47338;DHT22;33069;51.970;5.892;2023-04-24T15:19:39;10.60;60.70
47338;DHT22;33069;51.970;5.892;2023-04-24T15:22:04;10.50;59.80
47338;DHT22;33069;51.970;5.892;2023-04-24T15:24:30;10.60;58.10
47338;DHT22;33069;51.970;5.892;2023-04-24T15:26:56;10.70;57.70
47338;DHT22;33069;51.970;5.892;2023-04-24T15:29:22;10.20;60.10
47338;DHT22;33069;51.970;5.892;2023-04-24T15:31:48;10.30;61.60
47338;DHT22;33069;51.970;5.892;2023-04-24T15:34:14;10.40;60.40
47338;DHT22;33069;51.970;5.892;2023-04-24T15:36:40;10.30;61.20
47338;DHT22;33069;51.970;5.892;2023-04-24T15:39:05;10.50;60.30
47338;DHT22;33069;51.970;5.892;2023-04-24T15:41:31;10.60;60.50
47338;DHT22;33069;51.970;5.892;2023-04-24T15:43:57;10.70;59.40
47338;DHT22;33069;51.970;5.892;2023-04-24T15:46:23;10.80;59.50
47338;DHT22;33069;51.970;5.892;2023-04-24T15:48:49;10.40;60.90
47338;DHT22;33069;51.970;5.892;2023-04-24T15:51:15;11.00;60.50
47338;DHT22;33069;51.970;5.892;2023-04-24T15:53:41;10.70;62.20